sensor_id;sensor_type;location;lat;lon;timestamp;P1;durP1;ratioP1;P2;durP2;ratioP2
9968;SDS011;5025;48.890;9.278;2023-05-20T00:01:07;3.87;;;3.57;;
9968;SDS011;5025;48.890;9.278;2023-05-20T00:03:33;4.23;;;3.83;;
9968;SDS011;5025;48.890;9.278;2023-05-20T00:05:58;4.53;;;4.13;;
9968;SDS011;5025;48.890;9.278;2023-05-20T00:08:23;4.33;;;3.93;;
9968;SDS011;5025;48.890;9.278;2023-05-20T00:10:49;4.00;;;3.70;;
9968;SDS011;5025;48.890;9.278;2023-05-20T00:13:14;4.07;;;3.77;;
9968;SDS011;5025;48.890;9.278;2023-05-20T00:15:40;4.00;;;3.70;;
9968;SDS011;5025;48.890;9.278;2023-05-20T00:18:06;4.10;;;3.80;;
9968;SDS011;5025;48.890;9.278;2023-05-20T00:20:32;3.70;;;3.47;;
9968;SDS011;5025;48.890;9.278;2023-05-20T00:22:57;4.27;;;3.97;;
9968;SDS011;5025;48.890;9.278;2023-05-20T00:25:22;3.97;;;3.67;;
9968;SDS011;5025;48.890;9.278;2023-05-20T00:27:47;4.03;;;3.70;;
9968;SDS011;5025;48.890;9.278;2023-05-20T00:30:13;3.50;;;3.30;;
9968;SDS011;5025;48.890;9.278;2023-05-20T00:32:38;3.67;;;3.40;;
9968;SDS011;5025;48.890;9.278;2023-05-20T00:35:04;3.50;;;3.30;;
9968;SDS011;5025;48.890;9.278;2023-05-20T00:37:29;4.13;;;3.83;;
9968;SDS011;5025;48.890;9.278;2023-05-20T00:39:55;3.80;;;3.50;;
9968;SDS011;5025;48.890;9.278;2023-05-20T00:42:24;3.60;;;3.40;;
9968;SDS011;5025;48.890;9.278;2023-05-20T00:44:50;3.60;;;3.30;;
9968;SDS011;5025;48.890;9.278;2023-05-20T00:47:17;3.60;;;3.20;;
9968;SDS011;5025;48.890;9.278;2023-05-20T00:49:43;3.40;;;3.20;;
9968;SDS011;5025;48.890;9.278;2023-05-20T00:52:10;3.50;;;3.30;;
9968;SDS011;5025;48.890;9.278;2023-05-20T00:54:36;3.70;;;3.40;;
9968;SDS011;5025;48.890;9.278;2023-05-20T00:57:02;3.83;;;3.53;;
9968;SDS011;5025;48.890;9.278;2023-05-20T00:59:30;3.70;;;3.50;;
9968;SDS011;5025;48.890;9.278;2023-05-20T01:01:55;3.43;;;3.23;;
9968;SDS011;5025;48.890;9.278;2023-05-20T01:04:21;3.47;;;3.27;;
9968;SDS011;5025;48.890;9.278;2023-05-20T01:06:46;3.17;;;3.00;;
9968;SDS011;5025;48.890;9.278;2023-05-20T01:09:12;3.40;;;3.20;;
9968;SDS011;5025;48.890;9.278;2023-05-20T01:11:37;3.40;;;3.20;;
9968;SDS011;5025;48.890;9.278;2023-05-20T01:14:11;3.23;;;3.03;;
9968;SDS011;5025;48.890;9.278;2023-05-20T01:16:40;3.40;;;3.20;;
9968;SDS011;5025;48.890;9.278;2023-05-20T01:19:12;3.43;;;3.17;;
9968;SDS011;5025;48.890;9.278;2023-05-20T01:21:50;3.60;;;3.40;;
9968;SDS011;5025;48.890;9.278;2023-05-20T01:24:18;3.43;;;3.13;;
9968;SDS011;5025;48.890;9.278;2023-05-20T01:26:43;4.53;;;3.40;;
9968;SDS011;5025;48.890;9.278;2023-05-20T01:29:12;3.60;;;3.30;;
9968;SDS011;5025;48.890;9.278;2023-05-20T01:31:37;4.03;;;3.73;;
9968;SDS011;5025;48.890;9.278;2023-05-20T01:34:03;3.77;;;3.57;;
9968;SDS011;5025;48.890;9.278;2023-05-20T01:36:29;3.83;;;3.57;;
9968;SDS011;5025;48.890;9.278;2023-05-20T01:38:56;4.53;;;4.13;;
9968;SDS011;5025;48.890;9.278;2023-05-20T01:41:22;4.17;;;3.83;;
9968;SDS011;5025;48.890;9.278;2023-05-20T01:43:50;3.50;;;3.30;;
9968;SDS011;5025;48.890;9.278;2023-05-20T01:46:15;3.87;;;3.57;;
9968;SDS011;5025;48.890;9.278;2023-05-20T01:48:41;3.40;;;3.10;;
9968;SDS011;5025;48.890;9.278;2023-05-20T01:51:07;3.27;;;3.07;;
9968;SDS011;5025;48.890;9.278;2023-05-20T01:53:32;3.63;;;3.43;;
9968;SDS011;5025;48.890;9.278;2023-05-20T01:55:57;3.30;;;3.10;;
9968;SDS011;5025;48.890;9.278;2023-05-20T01:58:22;3.70;;;3.37;;
9968;SDS011;5025;48.890;9.278;2023-05-20T02:00:48;3.10;;;2.90;;
9968;SDS011;5025;48.890;9.278;2023-05-20T02:03:13;3.27;;;3.07;;
9968;SDS011;5025;48.890;9.278;2023-05-20T02:05:38;3.50;;;3.30;;
9968;SDS011;5025;48.890;9.278;2023-05-20T02:08:03;3.20;;;3.00;;
9968;SDS011;5025;48.890;9.278;2023-05-20T02:10:29;3.20;;;3.00;;
9968;SDS011;5025;48.890;9.278;2023-05-20T02:12:54;3.80;;;3.50;;
9968;SDS011;5025;48.890;9.278;2023-05-20T02:15:19;3.20;;;3.00;;
9968;SDS011;5025;48.890;9.278;2023-05-20T02:17:45;3.20;;;3.00;;
9968;SDS011;5025;48.890;9.278;2023-05-20T02:20:11;3.57;;;3.37;;
9968;SDS011;5025;48.890;9.278;2023-05-20T02:22:37;3.07;;;2.87;;
9968;SDS011;5025;48.890;9.278;2023-05-20T02:25:03;2.93;;;2.83;;
9968;SDS011;5025;48.890;9.278;2023-05-20T02:27:28;3.10;;;2.80;;
9968;SDS011;5025;48.890;9.278;2023-05-20T02:29:53;3.10;;;2.90;;
9968;SDS011;5025;48.890;9.278;2023-05-20T02:32:18;3.10;;;2.90;;
9968;SDS011;5025;48.890;9.278;2023-05-20T02:34:45;2.90;;;2.70;;
9968;SDS011;5025;48.890;9.278;2023-05-20T02:37:10;3.00;;;2.80;;
9968;SDS011;5025;48.890;9.278;2023-05-20T02:39:35;2.97;;;2.77;;
9968;SDS011;5025;48.890;9.278;2023-05-20T02:42:01;3.03;;;2.83;;
9968;SDS011;5025;48.890;9.278;2023-05-20T02:44:26;3.00;;;2.70;;
9968;SDS011;5025;48.890;9.278;2023-05-20T02:46:51;3.20;;;3.00;;
9968;SDS011;5025;48.890;9.278;2023-05-20T02:49:17;3.17;;;2.97;;
9968;SDS011;5025;48.890;9.278;2023-05-20T02:51:42;3.00;;;2.80;;
9968;SDS011;5025;48.890;9.278;2023-05-20T02:54:07;3.00;;;2.80;;
9968;SDS011;5025;48.890;9.278;2023-05-20T02:56:32;2.90;;;2.70;;
9968;SDS011;5025;48.890;9.278;2023-05-20T02:58:58;3.10;;;2.90;;
9968;SDS011;5025;48.890;9.278;2023-05-20T03:01:24;2.60;;;2.40;;
9968;SDS011;5025;48.890;9.278;2023-05-20T03:03:49;3.17;;;2.90;;
9968;SDS011;5025;48.890;9.278;2023-05-20T03:06:14;2.83;;;2.70;;
9968;SDS011;5025;48.890;9.278;2023-05-20T03:08:40;2.83;;;2.73;;
9968;SDS011;5025;48.890;9.278;2023-05-20T03:11:06;2.90;;;2.73;;
9968;SDS011;5025;48.890;9.278;2023-05-20T03:13:31;2.90;;;2.70;;
9968;SDS011;5025;48.890;9.278;2023-05-20T03:15:57;3.00;;;2.80;;
9968;SDS011;5025;48.890;9.278;2023-05-20T03:18:22;3.10;;;2.90;;
9968;SDS011;5025;48.890;9.278;2023-05-20T03:20:47;3.00;;;2.80;;
9968;SDS011;5025;48.890;9.278;2023-05-20T03:23:13;3.00;;;2.80;;
9968;SDS011;5025;48.890;9.278;2023-05-20T03:25:38;2.90;;;2.70;;
9968;SDS011;5025;48.890;9.278;2023-05-20T03:28:04;2.97;;;2.87;;
9968;SDS011;5025;48.890;9.278;2023-05-20T03:30:30;2.90;;;2.70;;
9968;SDS011;5025;48.890;9.278;2023-05-20T03:32:55;2.80;;;2.70;;
9968;SDS011;5025;48.890;9.278;2023-05-20T03:35:24;2.80;;;2.60;;
9968;SDS011;5025;48.890;9.278;2023-05-20T03:37:50;2.90;;;2.70;;
9968;SDS011;5025;48.890;9.278;2023-05-20T03:40:18;3.10;;;2.90;;
9968;SDS011;5025;48.890;9.278;2023-05-20T03:42:47;2.70;;;2.57;;
9968;SDS011;5025;48.890;9.278;2023-05-20T03:45:12;2.70;;;2.53;;
9968;SDS011;5025;48.890;9.278;2023-05-20T03:47:37;2.77;;;2.67;;
9968;SDS011;5025;48.890;9.278;2023-05-20T03:50:03;3.10;;;2.90;;
9968;SDS011;5025;48.890;9.278;2023-05-20T03:52:28;3.30;;;3.00;;
9968;SDS011;5025;48.890;9.278;2023-05-20T03:54:54;3.10;;;2.90;;
9968;SDS011;5025;48.890;9.278;2023-05-20T03:57:19;3.50;;;3.20;;
9968;SDS011;5025;48.890;9.278;2023-05-20T03:59:44;3.10;;;2.90;;
9968;SDS011;5025;48.890;9.278;2023-05-20T04:02:09;3.00;;;2.80;;
9968;SDS011;5025;48.890;9.278;2023-05-20T04:04:35;2.90;;;2.70;;
9968;SDS011;5025;48.890;9.278;2023-05-20T04:07:01;3.20;;;3.00;;
9968;SDS011;5025;48.890;9.278;2023-05-20T04:09:27;3.10;;;2.90;;
9968;SDS011;5025;48.890;9.278;2023-05-20T04:11:52;2.90;;;2.80;;
9968;SDS011;5025;48.890;9.278;2023-05-20T04:14:17;2.90;;;2.73;;
9968;SDS011;5025;48.890;9.278;2023-05-20T04:16:43;3.03;;;2.73;;
9968;SDS011;5025;48.890;9.278;2023-05-20T04:19:09;2.80;;;2.60;;
9968;SDS011;5025;48.890;9.278;2023-05-20T04:21:35;2.93;;;2.73;;
9968;SDS011;5025;48.890;9.278;2023-05-20T04:24:01;3.53;;;3.33;;
9968;SDS011;5025;48.890;9.278;2023-05-20T04:26:26;3.80;;;3.60;;
9968;SDS011;5025;48.890;9.278;2023-05-20T04:28:52;3.90;;;3.50;;
9968;SDS011;5025;48.890;9.278;2023-05-20T04:31:19;4.60;;;3.60;;
9968;SDS011;5025;48.890;9.278;2023-05-20T04:33:45;3.93;;;3.63;;
9968;SDS011;5025;48.890;9.278;2023-05-20T04:36:10;3.80;;;3.50;;
9968;SDS011;5025;48.890;9.278;2023-05-20T04:38:40;4.20;;;3.83;;
9968;SDS011;5025;48.890;9.278;2023-05-20T04:41:06;3.50;;;3.30;;
9968;SDS011;5025;48.890;9.278;2023-05-20T04:43:31;3.60;;;3.30;;
9968;SDS011;5025;48.890;9.278;2023-05-20T04:45:57;4.10;;;3.80;;
9968;SDS011;5025;48.890;9.278;2023-05-20T04:48:29;4.03;;;3.63;;
9968;SDS011;5025;48.890;9.278;2023-05-20T04:50:56;3.27;;;3.07;;
9968;SDS011;5025;48.890;9.278;2023-05-20T04:53:21;3.63;;;3.33;;
9968;SDS011;5025;48.890;9.278;2023-05-20T04:55:47;3.37;;;3.17;;
9968;SDS011;5025;48.890;9.278;2023-05-20T04:58:13;3.63;;;3.37;;
9968;SDS011;5025;48.890;9.278;2023-05-20T05:00:41;3.57;;;3.30;;
9968;SDS011;5025;48.890;9.278;2023-05-20T05:03:07;3.53;;;3.33;;
9968;SDS011;5025;48.890;9.278;2023-05-20T05:05:35;3.13;;;2.93;;
9968;SDS011;5025;48.890;9.278;2023-05-20T05:08:04;3.40;;;3.20;;
9968;SDS011;5025;48.890;9.278;2023-05-20T05:10:30;4.03;;;3.73;;
9968;SDS011;5025;48.890;9.278;2023-05-20T05:12:56;3.50;;;3.30;;
9968;SDS011;5025;48.890;9.278;2023-05-20T05:15:21;3.67;;;3.47;;
9968;SDS011;5025;48.890;9.278;2023-05-20T05:17:47;3.40;;;3.20;;
9968;SDS011;5025;48.890;9.278;2023-05-20T05:20:12;3.27;;;3.07;;
9968;SDS011;5025;48.890;9.278;2023-05-20T05:22:37;3.77;;;3.10;;
9968;SDS011;5025;48.890;9.278;2023-05-20T05:25:05;2.97;;;2.83;;
9968;SDS011;5025;48.890;9.278;2023-05-20T05:27:34;3.73;;;3.43;;
9968;SDS011;5025;48.890;9.278;2023-05-20T05:30:00;3.50;;;3.30;;
9968;SDS011;5025;48.890;9.278;2023-05-20T05:32:26;3.87;;;3.57;;
9968;SDS011;5025;48.890;9.278;2023-05-20T05:34:51;4.27;;;3.97;;
9968;SDS011;5025;48.890;9.278;2023-05-20T05:37:16;4.57;;;4.07;;
9968;SDS011;5025;48.890;9.278;2023-05-20T05:39:41;4.10;;;3.80;;
9968;SDS011;5025;48.890;9.278;2023-05-20T05:42:07;3.93;;;3.57;;
9968;SDS011;5025;48.890;9.278;2023-05-20T05:44:32;3.70;;;3.50;;
9968;SDS011;5025;48.890;9.278;2023-05-20T05:46:57;3.60;;;3.40;;
9968;SDS011;5025;48.890;9.278;2023-05-20T05:49:23;3.50;;;3.30;;
9968;SDS011;5025;48.890;9.278;2023-05-20T05:51:49;3.67;;;3.47;;
9968;SDS011;5025;48.890;9.278;2023-05-20T05:54:14;3.37;;;3.17;;
9968;SDS011;5025;48.890;9.278;2023-05-20T05:56:40;3.70;;;3.40;;
9968;SDS011;5025;48.890;9.278;2023-05-20T05:59:05;3.90;;;3.60;;
9968;SDS011;5025;48.890;9.278;2023-05-20T06:01:30;3.57;;;3.37;;
9968;SDS011;5025;48.890;9.278;2023-05-20T06:03:55;3.53;;;3.33;;
9968;SDS011;5025;48.890;9.278;2023-05-20T06:06:21;3.60;;;3.40;;
9968;SDS011;5025;48.890;9.278;2023-05-20T06:08:46;3.37;;;3.17;;
9968;SDS011;5025;48.890;9.278;2023-05-20T06:11:11;2.90;;;2.80;;
9968;SDS011;5025;48.890;9.278;2023-05-20T06:13:36;3.47;;;3.27;;
9968;SDS011;5025;48.890;9.278;2023-05-20T06:16:02;3.10;;;2.90;;
9968;SDS011;5025;48.890;9.278;2023-05-20T06:18:27;3.20;;;3.00;;
9968;SDS011;5025;48.890;9.278;2023-05-20T06:20:53;3.40;;;3.20;;
9968;SDS011;5025;48.890;9.278;2023-05-20T06:23:22;3.27;;;3.10;;
9968;SDS011;5025;48.890;9.278;2023-05-20T06:25:47;3.10;;;2.90;;
9968;SDS011;5025;48.890;9.278;2023-05-20T06:28:13;3.70;;;3.50;;
9968;SDS011;5025;48.890;9.278;2023-05-20T06:30:39;3.37;;;3.17;;
9968;SDS011;5025;48.890;9.278;2023-05-20T06:33:05;3.33;;;3.13;;
9968;SDS011;5025;48.890;9.278;2023-05-20T06:35:30;3.40;;;3.20;;
9968;SDS011;5025;48.890;9.278;2023-05-20T06:37:58;3.70;;;3.50;;
9968;SDS011;5025;48.890;9.278;2023-05-20T06:40:25;3.97;;;3.70;;
9968;SDS011;5025;48.890;9.278;2023-05-20T06:42:51;3.77;;;3.57;;
9968;SDS011;5025;48.890;9.278;2023-05-20T06:45:16;3.90;;;3.70;;
9968;SDS011;5025;48.890;9.278;2023-05-20T06:47:41;3.63;;;3.43;;
9968;SDS011;5025;48.890;9.278;2023-05-20T06:50:07;3.60;;;3.40;;
9968;SDS011;5025;48.890;9.278;2023-05-20T06:52:32;4.23;;;4.00;;
9968;SDS011;5025;48.890;9.278;2023-05-20T06:54:58;4.30;;;4.03;;
9968;SDS011;5025;48.890;9.278;2023-05-20T06:57:23;4.20;;;3.90;;
9968;SDS011;5025;48.890;9.278;2023-05-20T06:59:48;4.53;;;4.23;;
9968;SDS011;5025;48.890;9.278;2023-05-20T07:02:13;4.27;;;4.00;;
9968;SDS011;5025;48.890;9.278;2023-05-20T07:04:39;3.80;;;3.60;;
9968;SDS011;5025;48.890;9.278;2023-05-20T07:07:04;3.87;;;3.67;;
9968;SDS011;5025;48.890;9.278;2023-05-20T07:09:29;3.80;;;3.60;;
9968;SDS011;5025;48.890;9.278;2023-05-20T07:11:54;3.70;;;3.50;;
9968;SDS011;5025;48.890;9.278;2023-05-20T07:14:20;4.30;;;4.00;;
9968;SDS011;5025;48.890;9.278;2023-05-20T07:16:45;4.30;;;4.00;;
9968;SDS011;5025;48.890;9.278;2023-05-20T07:19:10;4.47;;;4.10;;
9968;SDS011;5025;48.890;9.278;2023-05-20T07:21:36;4.27;;;4.00;;
9968;SDS011;5025;48.890;9.278;2023-05-20T07:24:01;4.10;;;3.90;;
9968;SDS011;5025;48.890;9.278;2023-05-20T07:26:26;3.97;;;3.77;;
9968;SDS011;5025;48.890;9.278;2023-05-20T07:28:51;4.27;;;3.97;;
9968;SDS011;5025;48.890;9.278;2023-05-20T07:31:17;3.73;;;3.53;;
9968;SDS011;5025;48.890;9.278;2023-05-20T07:33:42;4.70;;;4.40;;
9968;SDS011;5025;48.890;9.278;2023-05-20T07:36:07;4.27;;;3.97;;
9968;SDS011;5025;48.890;9.278;2023-05-20T07:38:33;4.60;;;4.20;;
9968;SDS011;5025;48.890;9.278;2023-05-20T07:40:58;4.23;;;4.00;;
9968;SDS011;5025;48.890;9.278;2023-05-20T07:43:23;4.00;;;3.80;;
9968;SDS011;5025;48.890;9.278;2023-05-20T07:45:48;4.20;;;3.97;;
9968;SDS011;5025;48.890;9.278;2023-05-20T07:48:14;3.73;;;3.43;;
9968;SDS011;5025;48.890;9.278;2023-05-20T07:50:39;3.83;;;3.53;;
9968;SDS011;5025;48.890;9.278;2023-05-20T07:53:05;4.00;;;3.80;;
9968;SDS011;5025;48.890;9.278;2023-05-20T07:55:33;3.93;;;3.73;;
9968;SDS011;5025;48.890;9.278;2023-05-20T07:58:00;3.70;;;3.50;;
9968;SDS011;5025;48.890;9.278;2023-05-20T08:00:26;4.30;;;4.00;;
9968;SDS011;5025;48.890;9.278;2023-05-20T08:02:51;4.50;;;4.20;;
9968;SDS011;5025;48.890;9.278;2023-05-20T08:05:16;4.63;;;4.30;;
9968;SDS011;5025;48.890;9.278;2023-05-20T08:07:42;4.00;;;3.80;;
9968;SDS011;5025;48.890;9.278;2023-05-20T08:10:07;4.70;;;4.40;;
9968;SDS011;5025;48.890;9.278;2023-05-20T08:12:33;4.53;;;4.23;;
9968;SDS011;5025;48.890;9.278;2023-05-20T08:14:58;4.63;;;4.33;;
9968;SDS011;5025;48.890;9.278;2023-05-20T08:17:23;4.57;;;4.27;;
9968;SDS011;5025;48.890;9.278;2023-05-20T08:19:49;4.13;;;3.93;;
9968;SDS011;5025;48.890;9.278;2023-05-20T08:22:14;4.27;;;4.07;;
9968;SDS011;5025;48.890;9.278;2023-05-20T08:24:39;4.17;;;3.97;;
9968;SDS011;5025;48.890;9.278;2023-05-20T08:27:05;4.20;;;3.90;;
9968;SDS011;5025;48.890;9.278;2023-05-20T08:29:30;4.23;;;4.03;;
9968;SDS011;5025;48.890;9.278;2023-05-20T08:31:55;4.07;;;3.87;;
9968;SDS011;5025;48.890;9.278;2023-05-20T08:34:21;4.17;;;3.87;;
9968;SDS011;5025;48.890;9.278;2023-05-20T08:36:46;4.43;;;4.13;;
9968;SDS011;5025;48.890;9.278;2023-05-20T08:39:11;4.50;;;4.20;;
9968;SDS011;5025;48.890;9.278;2023-05-20T08:41:36;4.40;;;4.10;;
9968;SDS011;5025;48.890;9.278;2023-05-20T08:44:03;4.00;;;3.80;;
9968;SDS011;5025;48.890;9.278;2023-05-20T08:46:29;3.90;;;3.70;;
9968;SDS011;5025;48.890;9.278;2023-05-20T08:48:58;3.73;;;3.53;;
9968;SDS011;5025;48.890;9.278;2023-05-20T08:51:23;3.90;;;3.70;;
9968;SDS011;5025;48.890;9.278;2023-05-20T08:53:51;4.17;;;3.90;;
9968;SDS011;5025;48.890;9.278;2023-05-20T08:56:16;4.20;;;4.00;;
9968;SDS011;5025;48.890;9.278;2023-05-20T08:58:42;4.57;;;4.30;;
9968;SDS011;5025;48.890;9.278;2023-05-20T09:01:10;4.10;;;3.80;;
9968;SDS011;5025;48.890;9.278;2023-05-20T09:03:36;3.77;;;3.57;;
9968;SDS011;5025;48.890;9.278;2023-05-20T09:06:08;4.30;;;3.93;;
9968;SDS011;5025;48.890;9.278;2023-05-20T09:08:33;3.83;;;3.63;;
9968;SDS011;5025;48.890;9.278;2023-05-20T09:10:59;3.70;;;3.50;;
9968;SDS011;5025;48.890;9.278;2023-05-20T09:13:25;3.90;;;3.60;;
9968;SDS011;5025;48.890;9.278;2023-05-20T09:15:51;4.00;;;3.80;;
9968;SDS011;5025;48.890;9.278;2023-05-20T09:18:17;3.87;;;3.67;;
9968;SDS011;5025;48.890;9.278;2023-05-20T09:20:45;3.73;;;3.53;;
9968;SDS011;5025;48.890;9.278;2023-05-20T09:23:11;4.07;;;3.87;;
9968;SDS011;5025;48.890;9.278;2023-05-20T09:25:36;4.10;;;3.90;;
9968;SDS011;5025;48.890;9.278;2023-05-20T09:28:08;4.20;;;4.00;;
9968;SDS011;5025;48.890;9.278;2023-05-20T09:30:34;4.20;;;4.00;;
9968;SDS011;5025;48.890;9.278;2023-05-20T09:32:59;4.40;;;4.10;;
9968;SDS011;5025;48.890;9.278;2023-05-20T09:35:27;3.83;;;3.60;;
9968;SDS011;5025;48.890;9.278;2023-05-20T09:37:53;3.70;;;3.50;;
9968;SDS011;5025;48.890;9.278;2023-05-20T09:40:27;3.70;;;3.50;;
9968;SDS011;5025;48.890;9.278;2023-05-20T09:42:55;4.00;;;3.80;;
9968;SDS011;5025;48.890;9.278;2023-05-20T09:45:23;3.93;;;3.73;;
9968;SDS011;5025;48.890;9.278;2023-05-20T09:47:49;4.50;;;4.20;;
9968;SDS011;5025;48.890;9.278;2023-05-20T09:50:16;4.57;;;4.27;;
9968;SDS011;5025;48.890;9.278;2023-05-20T09:52:44;4.70;;;4.40;;
9968;SDS011;5025;48.890;9.278;2023-05-20T09:55:12;3.80;;;3.60;;
9968;SDS011;5025;48.890;9.278;2023-05-20T09:57:39;4.10;;;3.90;;
9968;SDS011;5025;48.890;9.278;2023-05-20T10:00:04;4.13;;;3.93;;
9968;SDS011;5025;48.890;9.278;2023-05-20T10:02:32;4.10;;;3.80;;
9968;SDS011;5025;48.890;9.278;2023-05-20T10:04:59;4.10;;;3.90;;
9968;SDS011;5025;48.890;9.278;2023-05-20T10:13:04;3.97;;;3.77;;
9968;SDS011;5025;48.890;9.278;2023-05-20T10:15:57;3.80;;;3.60;;
9968;SDS011;5025;48.890;9.278;2023-05-20T10:18:39;3.90;;;3.70;;
9968;SDS011;5025;48.890;9.278;2023-05-20T10:21:22;4.30;;;4.10;;
9968;SDS011;5025;48.890;9.278;2023-05-20T10:23:48;4.03;;;3.83;;
9968;SDS011;5025;48.890;9.278;2023-05-20T10:26:15;3.90;;;3.70;;
9968;SDS011;5025;48.890;9.278;2023-05-20T10:28:40;4.07;;;3.87;;
9968;SDS011;5025;48.890;9.278;2023-05-20T10:31:15;4.10;;;3.80;;
9968;SDS011;5025;48.890;9.278;2023-05-20T10:33:42;3.90;;;3.70;;
9968;SDS011;5025;48.890;9.278;2023-05-20T10:36:09;3.97;;;3.77;;
9968;SDS011;5025;48.890;9.278;2023-05-20T10:38:53;4.20;;;4.00;;
9968;SDS011;5025;48.890;9.278;2023-05-20T10:41:20;4.67;;;4.47;;
9968;SDS011;5025;48.890;9.278;2023-05-20T10:43:47;4.20;;;4.00;;
9968;SDS011;5025;48.890;9.278;2023-05-20T10:46:24;4.50;;;4.23;;
9968;SDS011;5025;48.890;9.278;2023-05-20T10:48:49;4.37;;;4.07;;
9968;SDS011;5025;48.890;9.278;2023-05-20T10:51:15;4.17;;;3.87;;
9968;SDS011;5025;48.890;9.278;2023-05-20T10:53:41;4.80;;;4.40;;
9968;SDS011;5025;48.890;9.278;2023-05-20T10:56:16;4.37;;;4.07;;
9968;SDS011;5025;48.890;9.278;2023-05-20T10:58:43;4.03;;;3.73;;
9968;SDS011;5025;48.890;9.278;2023-05-20T11:01:08;4.50;;;4.20;;
9968;SDS011;5025;48.890;9.278;2023-05-20T11:03:34;4.13;;;3.93;;
9968;SDS011;5025;48.890;9.278;2023-05-20T11:06:00;4.40;;;4.10;;
9968;SDS011;5025;48.890;9.278;2023-05-20T11:08:29;3.93;;;3.70;;
9968;SDS011;5025;48.890;9.278;2023-05-20T11:10:57;4.13;;;3.93;;
9968;SDS011;5025;48.890;9.278;2023-05-20T11:13:23;4.67;;;4.27;;
9968;SDS011;5025;48.890;9.278;2023-05-20T11:15:49;4.33;;;4.10;;
9968;SDS011;5025;48.890;9.278;2023-05-20T11:18:14;4.00;;;3.80;;
9968;SDS011;5025;48.890;9.278;2023-05-20T11:20:40;3.73;;;3.53;;
9968;SDS011;5025;48.890;9.278;2023-05-20T11:23:05;3.80;;;3.60;;
9968;SDS011;5025;48.890;9.278;2023-05-20T11:25:37;3.80;;;3.60;;
9968;SDS011;5025;48.890;9.278;2023-05-20T11:28:02;3.80;;;3.60;;
9968;SDS011;5025;48.890;9.278;2023-05-20T11:30:28;3.83;;;3.63;;
9968;SDS011;5025;48.890;9.278;2023-05-20T11:33:01;4.00;;;3.80;;
9968;SDS011;5025;48.890;9.278;2023-05-20T11:35:28;3.73;;;3.53;;
9968;SDS011;5025;48.890;9.278;2023-05-20T11:37:55;4.30;;;4.10;;
9968;SDS011;5025;48.890;9.278;2023-05-20T11:40:29;4.67;;;4.37;;
9968;SDS011;5025;48.890;9.278;2023-05-20T11:42:56;4.10;;;3.90;;
9968;SDS011;5025;48.890;9.278;2023-05-20T11:45:23;3.90;;;3.60;;
9968;SDS011;5025;48.890;9.278;2023-05-20T11:47:59;4.33;;;4.03;;
9968;SDS011;5025;48.890;9.278;2023-05-20T11:50:25;3.90;;;3.70;;
9968;SDS011;5025;48.890;9.278;2023-05-20T11:52:55;4.37;;;3.73;;
9968;SDS011;5025;48.890;9.278;2023-05-20T11:55:22;4.27;;;3.97;;
9968;SDS011;5025;48.890;9.278;2023-05-20T11:57:47;4.10;;;3.90;;
9968;SDS011;5025;48.890;9.278;2023-05-20T12:00:14;3.70;;;3.50;;
9968;SDS011;5025;48.890;9.278;2023-05-20T12:02:40;3.97;;;3.77;;
9968;SDS011;5025;48.890;9.278;2023-05-20T12:05:05;3.63;;;3.43;;
9968;SDS011;5025;48.890;9.278;2023-05-20T12:07:31;3.80;;;3.50;;
9968;SDS011;5025;48.890;9.278;2023-05-20T12:09:56;3.90;;;3.70;;
9968;SDS011;5025;48.890;9.278;2023-05-20T12:12:21;3.90;;;3.70;;
9968;SDS011;5025;48.890;9.278;2023-05-20T12:14:48;3.67;;;3.47;;
9968;SDS011;5025;48.890;9.278;2023-05-20T12:17:13;3.70;;;3.50;;
9968;SDS011;5025;48.890;9.278;2023-05-20T12:19:38;3.80;;;3.60;;
9968;SDS011;5025;48.890;9.278;2023-05-20T12:22:04;3.50;;;3.30;;
9968;SDS011;5025;48.890;9.278;2023-05-20T12:24:29;3.67;;;3.47;;
9968;SDS011;5025;48.890;9.278;2023-05-20T12:26:54;3.20;;;3.10;;
9968;SDS011;5025;48.890;9.278;2023-05-20T12:29:20;3.60;;;3.40;;
9968;SDS011;5025;48.890;9.278;2023-05-20T12:31:45;3.20;;;3.00;;
9968;SDS011;5025;48.890;9.278;2023-05-20T12:34:10;3.80;;;3.60;;
9968;SDS011;5025;48.890;9.278;2023-05-20T12:36:35;3.40;;;3.20;;
9968;SDS011;5025;48.890;9.278;2023-05-20T12:39:01;3.23;;;3.13;;
9968;SDS011;5025;48.890;9.278;2023-05-20T12:41:26;3.57;;;3.30;;
9968;SDS011;5025;48.890;9.278;2023-05-20T12:43:52;3.60;;;3.30;;
9968;SDS011;5025;48.890;9.278;2023-05-20T12:46:18;3.57;;;3.37;;
9968;SDS011;5025;48.890;9.278;2023-05-20T12:48:43;3.53;;;3.33;;
9968;SDS011;5025;48.890;9.278;2023-05-20T12:51:08;3.30;;;3.20;;
9968;SDS011;5025;48.890;9.278;2023-05-20T12:53:33;3.30;;;3.17;;
9968;SDS011;5025;48.890;9.278;2023-05-20T12:55:59;3.60;;;3.40;;
9968;SDS011;5025;48.890;9.278;2023-05-20T12:58:24;3.73;;;3.43;;
9968;SDS011;5025;48.890;9.278;2023-05-20T13:00:50;3.80;;;3.60;;
9968;SDS011;5025;48.890;9.278;2023-05-20T13:03:15;3.43;;;3.30;;
9968;SDS011;5025;48.890;9.278;2023-05-20T13:05:40;3.80;;;3.60;;
9968;SDS011;5025;48.890;9.278;2023-05-20T13:08:06;3.50;;;3.30;;
9968;SDS011;5025;48.890;9.278;2023-05-20T13:10:32;3.10;;;3.00;;
9968;SDS011;5025;48.890;9.278;2023-05-20T13:12:58;3.40;;;3.20;;
9968;SDS011;5025;48.890;9.278;2023-05-20T13:15:23;3.43;;;3.20;;
9968;SDS011;5025;48.890;9.278;2023-05-20T13:17:48;3.40;;;3.13;;
9968;SDS011;5025;48.890;9.278;2023-05-20T13:20:14;3.40;;;3.20;;
9968;SDS011;5025;48.890;9.278;2023-05-20T13:22:39;3.73;;;3.53;;
9968;SDS011;5025;48.890;9.278;2023-05-20T13:25:04;3.87;;;3.67;;
9968;SDS011;5025;48.890;9.278;2023-05-20T13:27:30;3.43;;;3.27;;
9968;SDS011;5025;48.890;9.278;2023-05-20T13:29:55;3.70;;;3.50;;
9968;SDS011;5025;48.890;9.278;2023-05-20T13:32:21;3.40;;;3.20;;
9968;SDS011;5025;48.890;9.278;2023-05-20T13:34:46;3.37;;;3.20;;
9968;SDS011;5025;48.890;9.278;2023-05-20T13:37:12;3.50;;;3.30;;
9968;SDS011;5025;48.890;9.278;2023-05-20T13:39:37;3.30;;;3.20;;
9968;SDS011;5025;48.890;9.278;2023-05-20T13:42:02;3.47;;;3.27;;
9968;SDS011;5025;48.890;9.278;2023-05-20T13:44:28;3.50;;;3.30;;
9968;SDS011;5025;48.890;9.278;2023-05-20T13:46:53;3.43;;;3.23;;
9968;SDS011;5025;48.890;9.278;2023-05-20T13:49:19;3.47;;;3.27;;
9968;SDS011;5025;48.890;9.278;2023-05-20T13:51:45;3.00;;;2.90;;
9968;SDS011;5025;48.890;9.278;2023-05-20T13:54:10;3.30;;;3.10;;
9968;SDS011;5025;48.890;9.278;2023-05-20T13:56:35;3.37;;;3.17;;
9968;SDS011;5025;48.890;9.278;2023-05-20T13:59:01;3.30;;;3.10;;
9968;SDS011;5025;48.890;9.278;2023-05-20T14:01:27;3.37;;;3.17;;
9968;SDS011;5025;48.890;9.278;2023-05-20T14:03:54;2.70;;;2.60;;
9968;SDS011;5025;48.890;9.278;2023-05-20T14:06:19;3.23;;;3.00;;
9968;SDS011;5025;48.890;9.278;2023-05-20T14:08:45;2.97;;;2.87;;
9968;SDS011;5025;48.890;9.278;2023-05-20T14:11:11;3.20;;;3.10;;
9968;SDS011;5025;48.890;9.278;2023-05-20T14:13:36;3.00;;;2.80;;
9968;SDS011;5025;48.890;9.278;2023-05-20T14:16:01;3.00;;;2.80;;
9968;SDS011;5025;48.890;9.278;2023-05-20T14:18:27;3.00;;;2.90;;
9968;SDS011;5025;48.890;9.278;2023-05-20T14:20:52;2.57;;;2.47;;
9968;SDS011;5025;48.890;9.278;2023-05-20T14:23:17;2.63;;;2.53;;
9968;SDS011;5025;48.890;9.278;2023-05-20T14:25:43;2.80;;;2.70;;
9968;SDS011;5025;48.890;9.278;2023-05-20T14:28:08;2.97;;;2.87;;
9968;SDS011;5025;48.890;9.278;2023-05-20T14:30:33;3.20;;;3.00;;
9968;SDS011;5025;48.890;9.278;2023-05-20T14:32:58;2.97;;;2.87;;
9968;SDS011;5025;48.890;9.278;2023-05-20T14:35:24;2.80;;;2.70;;
9968;SDS011;5025;48.890;9.278;2023-05-20T14:37:49;3.10;;;3.00;;
9968;SDS011;5025;48.890;9.278;2023-05-20T14:40:14;2.80;;;2.70;;
9968;SDS011;5025;48.890;9.278;2023-05-20T14:42:40;3.07;;;2.97;;
9968;SDS011;5025;48.890;9.278;2023-05-20T14:45:05;3.27;;;3.07;;
9968;SDS011;5025;48.890;9.278;2023-05-20T14:47:32;2.97;;;2.80;;
9968;SDS011;5025;48.890;9.278;2023-05-20T14:49:57;3.00;;;2.90;;
9968;SDS011;5025;48.890;9.278;2023-05-20T14:52:22;3.30;;;3.20;;
9968;SDS011;5025;48.890;9.278;2023-05-20T14:54:48;3.33;;;3.07;;
9968;SDS011;5025;48.890;9.278;2023-05-20T14:57:13;2.93;;;2.80;;
9968;SDS011;5025;48.890;9.278;2023-05-20T14:59:40;3.00;;;2.90;;
9968;SDS011;5025;48.890;9.278;2023-05-20T15:02:06;3.00;;;2.90;;
9968;SDS011;5025;48.890;9.278;2023-05-20T15:04:31;3.40;;;3.20;;
9968;SDS011;5025;48.890;9.278;2023-05-20T15:06:56;3.17;;;3.00;;
9968;SDS011;5025;48.890;9.278;2023-05-20T15:09:22;3.30;;;3.10;;
9968;SDS011;5025;48.890;9.278;2023-05-20T15:11:47;3.00;;;2.80;;
9968;SDS011;5025;48.890;9.278;2023-05-20T15:14:12;3.00;;;2.90;;